Glacier, Washington
Current Conditions -  °F | °C
As of 11:00 AM on Friday 21 Nov 2014 (Local Time) from CYXX Reporting Station
Moderate Rain Moderate Rain  
Wind Chill: 43°   Ceiling: 3000
Heat Index: 46°   Visibility: 10mi
Dew Point: 46°   Wind: 7mph
Humidity: 100%   Direction: 20°NNE
Pressure: 29.61"   Gusts: NA
Location:  48.8512°N, 121.903°W
Report Text: CYXX 211900Z 02006KT 10SM RA FEW002 FEW010 BKN030 OVC045 08/08 A2961 RMK SF1SF1SC5SC1 PRESFR SLP026
Loading
Personal Weather Stations






























Interactive Weather Map New forecast layout! Learn more

10-Day Weather Forecast

Advertisements
Track Severe Weather on mobile